Sign-in with your pilot id or email, or register

ICAO: EINN Name / Country: Shannon Airport / Ireland
Latitude: 52.702 Longitude: -8.92482
Total Arrivals:
Strict Standards: Non-static method AirportData::getarrflights() should not be called statically, assuming $this from incompatible context in /var/www/customers/vh-7192/web/home/phpvms/core/templates/airport_info.tpl on line 18
0
Total Departures:
Strict Standards: Non-static method AirportData::getdeptflights() should not be called statically, assuming $this from incompatible context in /var/www/customers/vh-7192/web/home/phpvms/core/templates/airport_info.tpl on line 21
1
Latest Arrival: (-) Latest Departure: MTA5PM (EINN-LHBP) Tibor Berces
Metar: EINN 261330Z 02006KT 310V070 9999 FEW035 13/02 Q1021 NOSIG
More info

Charts for EINN


NOTAM


Warning: file_get_contents(http://api.vateud.net/notams/EINN.json): failed to open stream: Redirection limit reached, aborting in /var/www/customers/vh-7192/web/home/phpvms/core/common/NOTAMSData.class.php on line 18

Warning: Invalid argument supplied for foreach() in /var/www/customers/vh-7192/web/home/phpvms/core/common/NOTAMSData.class.php on line 22

Shannon Airport